Briefing drone pour Annonay

Rechercher une autre localisation

Conditions de vol :


Nous sommes le : Mercredi 25 mai 2022
Il est 14:26 UTC (16:26 LT)

Lever de soleil : 03:35 UTC (05:35 LT)
Coucher de soleil : 19:41 UTC (21:41 LT)

Météo

L'essentiel des conditions de vol

VIGILANCE MÉTÉO FRANCE - Ardèche (07)
Pas de vigilances particulieres
METAR de LFMH
LFMH 251400Z AUTO 34011KT 300V020 CAVOK 21/05 Q1019

Date d'émission: 25/05/2022
Heure d'émission: 14:00 UTC
Vent: 340° (variable du 300° au 020°) pour 11 KT (20 km/h)
Visibilité horizontale: > 10 km
Plafond : Plafond et visibilité OK (CAVOK)
Température: 21 °C
Point de rosée: 5 °C
Humidité: 35%
Pression (QNH): 1019 hPa
TAF de LFMH
LFMH 161901Z 1619/1712 CNL

Conditions prévues :

Heure d'émission : Bulletin éffectué le 16 à 19:00 UTC
Prévision : Valide du 16 a 19:00 UTC au 17 a 12:00 UTC
Nuages : à 0ft (0 m)
WEBCAM POUR ANNONAY

Réglementation

Voler en sécurité

CARTES AERONAUTIQUE 1/500.000
CARTES VAC (LFMH)
SUP AIP




Chargement des AIP...
NOTAM (ANNONAY + Terrain à proximité / FIR )




Chargement des NOTAMS...
CONTACT PREFECTURE 07


Avertissement : Les données mises à disposition sont indicatives. Oxygène Drone ne pourra être tenu responsable de dégâts causés aux biens et aux personnes.